createdAt,value
2023-04-20T00:00:48.426Z,12.30
2023-04-20T00:05:49.438Z,13.68
2023-04-20T00:10:49.744Z,16.10
2023-04-20T00:15:48.733Z,13.43
2023-04-20T00:20:47.589Z,12.65
2023-04-20T00:25:46.559Z,16.50
2023-04-20T00:30:47.002Z,14.38
2023-04-20T00:35:45.892Z,13.98
2023-04-20T00:40:49.027Z,17.35
2023-04-20T00:45:49.578Z,17.23
2023-04-20T00:50:49.483Z,15.40
2023-04-20T00:55:49.142Z,14.68
2023-04-20T01:00:49.582Z,14.23
2023-04-20T01:05:50.103Z,16.00
2023-04-20T01:10:49.010Z,14.40
2023-04-20T01:15:49.453Z,14.65
2023-04-20T01:20:48.518Z,17.90
2023-04-20T01:25:48.844Z,14.70
2023-04-20T01:30:48.044Z,18.05
2023-04-20T01:35:47.046Z,22.85
2023-04-20T01:40:45.962Z,17.33
2023-04-20T01:45:46.683Z,16.98
2023-04-20T01:50:45.696Z,14.38
2023-04-20T01:55:45.361Z,15.48
2023-04-20T02:00:47.244Z,16.58
2023-04-20T02:05:46.185Z,17.58
2023-04-20T02:10:45.204Z,19.85
2023-04-20T02:15:46.680Z,16.52
2023-04-20T02:20:46.234Z,17.02
2023-04-20T02:25:45.164Z,21.10
2023-04-20T02:30:44.256Z,14.35
2023-04-20T02:35:45.484Z,16.35
2023-04-20T02:40:44.509Z,17.48
2023-04-20T02:45:43.474Z,14.00
2023-04-20T02:50:44.903Z,12.05
2023-04-20T02:55:49.451Z,12.60
2023-04-20T03:01:24.186Z,12.30
2023-04-20T03:06:33.594Z,12.98
2023-04-20T03:11:33.098Z,13.00
2023-04-20T03:16:32.847Z,13.77
2023-04-20T03:21:33.722Z,12.65
2023-04-20T03:26:32.751Z,11.45
2023-04-20T03:31:46.707Z,11.80
2023-04-20T03:36:47.250Z,11.32
2023-04-20T03:41:46.414Z,12.13
2023-04-20T03:46:45.504Z,13.50
2023-04-20T03:51:44.376Z,14.00
2023-04-20T03:56:46.206Z,12.07
2023-04-20T04:01:46.010Z,15.55
2023-04-20T04:06:45.302Z,16.80
2023-04-20T04:11:45.796Z,17.13
2023-04-20T04:16:46.591Z,17.35
2023-04-20T04:21:46.080Z,15.77
2023-04-20T04:26:48.841Z,15.85
2023-04-20T04:31:50.583Z,17.33
2023-04-20T04:36:52.572Z,14.60
2023-04-20T04:42:00.813Z,18.38
2023-04-20T04:47:12.216Z,15.60
2023-04-20T04:52:11.488Z,18.55
2023-04-20T04:57:12.182Z,14.43
2023-04-20T05:02:13.384Z,17.75
2023-04-20T05:07:14.266Z,14.15
2023-04-20T05:12:14.521Z,16.35
2023-04-20T05:17:13.383Z,16.73
2023-04-20T05:22:12.182Z,16.70
2023-04-20T05:27:11.472Z,18.08
2023-04-20T05:32:11.807Z,17.85
2023-04-20T05:37:10.613Z,14.45
2023-04-20T05:42:09.357Z,16.80
2023-04-20T05:47:08.916Z,16.02
2023-04-20T05:52:09.164Z,20.25
2023-04-20T05:57:07.889Z,17.50
2023-04-20T06:02:07.149Z,15.73
2023-04-20T06:07:06.049Z,14.35
2023-04-20T06:12:06.631Z,15.25
2023-04-20T06:17:05.386Z,13.57
2023-04-20T06:22:07.787Z,18.98
2023-04-20T06:27:07.966Z,17.83
2023-04-20T06:32:06.997Z,15.07
2023-04-20T06:37:07.713Z,17.95
2023-04-20T06:42:09.776Z,16.60
2023-04-20T06:47:08.739Z,14.80
2023-04-20T06:52:07.628Z,12.52
2023-04-20T06:57:07.892Z,16.33
2023-04-20T07:02:06.924Z,16.20
2023-04-20T07:07:05.789Z,14.40
2023-04-20T07:12:04.735Z,14.57
2023-04-20T07:17:04.964Z,12.77
2023-04-20T07:22:03.844Z,16.60
2023-04-20T07:27:02.799Z,13.68
2023-04-20T07:32:01.732Z,17.10
2023-04-20T07:37:03.932Z,15.75
2023-04-20T07:42:04.634Z,18.00
2023-04-20T07:47:04.860Z,13.57
2023-04-20T07:52:15.871Z,13.88
2023-04-20T07:57:16.282Z,13.93
2023-04-20T08:02:15.442Z,13.88
2023-04-20T08:07:15.883Z,20.52
2023-04-20T08:12:15.099Z,19.15
2023-04-20T08:17:14.078Z,14.18
2023-04-20T08:22:13.629Z,13.15
2023-04-20T08:27:13.780Z,14.60
2023-04-20T08:32:12.680Z,16.98
2023-04-20T08:37:11.523Z,14.23
2023-04-20T08:42:10.502Z,16.45
2023-04-20T08:47:11.652Z,14.90
2023-04-20T08:52:11.318Z,14.82
2023-04-20T08:57:10.077Z,16.45
2023-04-20T09:02:14.748Z,12.77
2023-04-20T09:07:21.040Z,15.65
2023-04-20T09:12:21.608Z,14.55
2023-04-20T09:17:33.651Z,15.13
2023-04-20T09:22:33.752Z,13.40
2023-04-20T09:27:32.627Z,13.88
2023-04-20T09:32:33.288Z,12.25
2023-04-20T09:37:32.065Z,10.90
2023-04-20T09:42:33.356Z,11.32
2023-04-20T09:47:36.943Z,11.82
2023-04-20T09:52:38.934Z,12.18
2023-04-20T10:03:43.336Z,9.55
2023-04-20T10:08:42.822Z,10.50
2023-04-20T10:13:41.594Z,9.82
2023-04-20T10:18:41.931Z,10.93
2023-04-20T10:23:49.466Z,9.60
2023-04-20T10:28:48.313Z,15.05
2023-04-20T10:33:53.505Z,10.57
2023-04-20T10:38:53.049Z,8.35
2023-04-20T10:43:52.294Z,6.32
2023-04-20T10:48:54.124Z,7.28
2023-04-20T10:54:00.687Z,8.95
2023-04-20T10:59:08.359Z,6.88
2023-04-20T11:04:09.340Z,7.25
2023-04-20T11:09:20.066Z,7.05
2023-04-20T11:14:19.221Z,7.63
2023-04-20T11:19:26.887Z,7.32
2023-04-20T11:24:27.461Z,5.38
2023-04-20T11:29:31.982Z,5.72
2023-04-20T11:34:33.612Z,5.43
2023-04-20T11:39:33.605Z,5.78
2023-04-20T11:44:33.283Z,3.27
2023-04-20T11:50:03.558Z,6.63
2023-04-20T11:55:02.824Z,5.03
2023-04-20T12:00:01.715Z,3.75
2023-04-20T12:05:03.316Z,3.85
2023-04-20T12:10:02.406Z,7.07
2023-04-20T12:15:01.209Z,3.20
2023-04-20T12:20:02.866Z,4.43
2023-04-20T12:25:01.847Z,4.10
2023-04-20T12:30:00.567Z,2.30
2023-04-20T12:34:59.337Z,10.05
2023-04-20T12:39:59.437Z,3.90
2023-04-20T12:44:58.228Z,10.38
2023-04-20T12:49:57.032Z,6.15
2023-04-20T12:54:59.503Z,6.95
2023-04-20T12:59:58.507Z,5.03
2023-04-20T13:04:58.481Z,8.13
2023-04-20T13:09:57.335Z,6.65
2023-04-20T13:14:57.523Z,4.60
2023-04-20T13:19:56.408Z,5.85
2023-04-20T13:24:55.226Z,7.85
2023-04-20T13:29:54.039Z,7.53
2023-04-20T13:34:54.231Z,8.02
2023-04-20T13:39:53.024Z,5.90
2023-04-20T13:44:52.514Z,5.03
2023-04-20T13:49:51.402Z,4.10
2023-04-20T13:54:51.697Z,3.10
2023-04-20T13:59:51.374Z,6.93
2023-04-20T14:04:50.238Z,1.83
2023-04-20T14:09:49.199Z,2.40
2023-04-20T14:14:49.651Z,4.10
2023-04-20T14:19:49.681Z,4.43
2023-04-20T14:24:49.201Z,2.88
2023-04-20T14:29:49.432Z,6.90
2023-04-20T14:34:48.217Z,4.40
2023-04-20T14:39:47.258Z,4.57
2023-04-20T14:44:47.847Z,2.97
2023-04-20T14:49:48.018Z,3.10
2023-04-20T14:54:46.980Z,5.37
2023-04-20T14:59:45.808Z,3.83
2023-04-20T15:04:44.616Z,2.33
2023-04-20T15:09:44.934Z,3.83
2023-04-20T15:14:43.857Z,2.53
2023-04-20T15:19:46.149Z,2.45
2023-04-20T15:24:46.448Z,6.03
2023-04-20T15:29:45.197Z,5.13
2023-04-20T15:34:43.951Z,2.28
2023-04-20T15:39:42.751Z,4.43
2023-04-20T15:44:42.934Z,3.10
2023-04-20T15:49:41.956Z,2.55
2023-04-20T15:54:41.328Z,2.20
2023-04-20T15:59:43.819Z,2.83
2023-04-20T16:04:42.885Z,2.58
2023-04-20T16:09:43.126Z,10.32
2023-04-20T16:14:43.428Z,9.50
2023-04-20T16:19:42.205Z,9.65
2023-04-20T16:24:41.259Z,12.38
2023-04-20T16:29:40.134Z,12.73
2023-04-20T16:34:41.136Z,11.35
2023-04-20T16:39:39.927Z,10.80
2023-04-20T16:44:41.107Z,12.45
2023-04-20T16:49:42.030Z,7.53
2023-04-20T16:54:41.802Z,6.72
2023-04-20T16:59:40.700Z,11.60
2023-04-20T17:04:39.553Z,7.65
2023-04-20T17:09:39.851Z,19.08
2023-04-20T17:14:38.699Z,11.90
2023-04-20T17:19:40.743Z,13.00
2023-04-20T17:24:41.071Z,12.13
2023-04-20T17:29:40.333Z,13.20
2023-04-20T17:34:40.101Z,12.20
2023-04-20T17:39:40.608Z,10.98
2023-04-20T17:44:39.696Z,10.85
2023-04-20T17:49:41.464Z,16.25
2023-04-20T17:54:41.787Z,9.10
2023-04-20T17:59:41.914Z,11.90
2023-04-20T18:04:41.055Z,11.48
2023-04-20T18:09:41.441Z,10.85
2023-04-20T18:14:42.568Z,8.75
2023-04-20T18:19:41.987Z,6.93
2023-04-20T18:24:42.327Z,11.55
2023-04-20T18:29:42.869Z,15.38
2023-04-20T18:34:41.717Z,9.60
2023-04-20T18:39:41.904Z,6.35
2023-04-20T18:44:40.752Z,5.38
2023-04-20T18:49:39.613Z,6.65
2023-04-20T18:54:38.658Z,10.75
2023-04-20T18:59:39.013Z,6.70
2023-04-20T19:04:37.983Z,7.72
2023-04-20T19:09:36.736Z,5.68
2023-04-20T19:14:35.543Z,8.95
2023-04-20T19:19:38.244Z,6.88
2023-04-20T19:24:37.094Z,5.85
2023-04-20T19:29:37.140Z,7.53
2023-04-20T19:34:38.029Z,10.05
2023-04-20T19:39:37.022Z,8.40
2023-04-20T19:44:35.950Z,5.63
2023-04-20T19:49:34.714Z,10.00
2023-04-20T19:54:35.278Z,9.80
2023-04-20T19:59:34.061Z,7.82
2023-04-20T20:04:33.806Z,8.15
2023-04-20T20:09:34.044Z,7.43
2023-04-20T20:14:32.957Z,9.88
2023-04-20T20:19:31.807Z,9.43
2023-04-20T20:24:30.548Z,7.78
2023-04-20T20:29:30.731Z,7.72
2023-04-20T20:34:30.829Z,7.88
2023-04-20T20:39:29.674Z,7.88
2023-04-20T20:44:33.027Z,4.63
2023-04-20T20:49:31.822Z,6.90
2023-04-20T20:54:30.534Z,7.35
2023-04-20T20:59:30.661Z,9.20
2023-04-20T21:04:30.288Z,9.13
2023-04-20T21:09:29.017Z,5.82
2023-04-20T21:14:27.970Z,9.60
2023-04-20T21:19:28.150Z,8.50
2023-04-20T21:24:26.937Z,9.63
2023-04-20T21:29:25.811Z,10.82
2023-04-20T21:34:24.753Z,9.07
2023-04-20T21:39:24.934Z,11.93
2023-04-20T21:44:23.698Z,8.68
2023-04-20T21:49:22.694Z,7.05
2023-04-20T21:54:21.564Z,11.68
2023-04-20T21:59:21.857Z,9.52
2023-04-20T22:04:20.808Z,12.25
2023-04-20T22:09:19.785Z,9.35
2023-04-20T22:14:18.892Z,11.40
2023-04-20T22:19:19.228Z,8.20
2023-04-20T22:24:18.112Z,14.27
2023-04-20T22:29:19.626Z,6.63
2023-04-20T22:34:20.154Z,6.82
2023-04-20T22:39:19.210Z,9.73
2023-04-20T22:44:18.181Z,11.85
2023-04-20T22:49:17.187Z,5.38
2023-04-20T22:54:17.864Z,7.30
2023-04-20T22:59:17.098Z,5.35
2023-04-20T23:04:16.370Z,8.32
2023-04-20T23:09:20.505Z,5.65
2023-04-20T23:14:22.572Z,8.30
2023-04-20T23:19:21.918Z,8.75
2023-04-20T23:24:27.995Z,8.27
2023-04-20T23:29:28.613Z,6.47
2023-04-20T23:34:27.567Z,8.38
2023-04-20T23:39:26.279Z,6.97
2023-04-20T23:44:25.148Z,8.30
2023-04-20T23:49:25.465Z,7.82
2023-04-20T23:54:24.154Z,5.07
2023-04-20T23:59:22.914Z,5.07
